createdAt,value
2018-07-26T00:01:38.957Z,89.49
2018-07-26T00:04:05.262Z,89.62
2018-07-26T00:06:31.576Z,89.39
2018-07-26T00:08:57.883Z,89.36
2018-07-26T00:11:24.196Z,89.50
2018-07-26T00:13:50.507Z,89.63
2018-07-26T00:16:16.815Z,89.56
2018-07-26T00:18:43.118Z,89.23
2018-07-26T00:21:09.453Z,89.37
2018-07-26T00:23:35.742Z,89.55
2018-07-26T00:26:02.046Z,89.64
2018-07-26T00:28:28.361Z,89.54
2018-07-26T00:30:54.662Z,89.78
2018-07-26T00:33:20.970Z,89.86
2018-07-26T00:35:47.284Z,90.17
2018-07-26T00:38:13.601Z,90.53
2018-07-26T00:40:39.919Z,90.78
2018-07-26T00:43:06.228Z,90.84
2018-07-26T00:45:32.543Z,90.98
2018-07-26T00:47:58.895Z,91.16
2018-07-26T00:50:25.204Z,91.23
2018-07-26T00:52:51.521Z,91.15
2018-07-26T00:55:17.838Z,91.07
2018-07-26T00:57:44.156Z,91.34
2018-07-26T01:00:10.501Z,91.42
2018-07-26T01:02:36.817Z,91.22
2018-07-26T01:05:03.142Z,91.17
2018-07-26T01:07:29.505Z,91.09
2018-07-26T01:09:55.822Z,91.03
2018-07-26T01:12:22.134Z,91.04
2018-07-26T01:14:48.445Z,90.82
2018-07-26T01:17:14.797Z,90.98
2018-07-26T01:19:41.103Z,90.83
2018-07-26T01:22:07.461Z,90.88
2018-07-26T01:24:33.767Z,90.77
2018-07-26T01:27:00.076Z,90.75
2018-07-26T01:29:26.394Z,90.66
2018-07-26T01:31:52.710Z,90.68
2018-07-26T01:34:19.020Z,90.67
2018-07-26T01:36:45.335Z,90.63
2018-07-26T01:39:11.650Z,90.52
2018-07-26T01:41:37.976Z,90.44
2018-07-26T01:44:04.290Z,90.30
2018-07-26T01:46:30.599Z,90.27
2018-07-26T01:48:56.906Z,90.25
2018-07-26T01:51:23.218Z,90.22
2018-07-26T01:53:49.537Z,90.31
2018-07-26T01:56:15.863Z,90.14
2018-07-26T01:58:42.178Z,90.28
2018-07-26T02:01:08.489Z,90.35
2018-07-26T02:03:34.808Z,90.50
2018-07-26T02:06:01.132Z,90.66
2018-07-26T02:08:27.450Z,90.70
2018-07-26T02:10:53.763Z,90.99
2018-07-26T02:13:20.077Z,91.14
2018-07-26T02:15:46.384Z,91.28
2018-07-26T02:18:12.701Z,91.08
2018-07-26T02:20:39.016Z,90.71
2018-07-26T02:23:05.347Z,91.31
2018-07-26T02:25:31.658Z,91.96
2018-07-26T02:27:57.968Z,92.91
2018-07-26T02:30:24.282Z,93.33
2018-07-26T02:32:50.605Z,93.55
2018-07-26T02:35:16.920Z,93.83
2018-07-26T02:37:43.233Z,94.28
2018-07-26T02:40:09.549Z,94.59
2018-07-26T02:42:35.865Z,94.81
2018-07-26T02:45:02.173Z,95.12
2018-07-26T02:47:28.497Z,95.50
2018-07-26T02:49:54.801Z,95.73
2018-07-26T02:52:21.109Z,95.83
2018-07-26T02:54:47.420Z,96.20
2018-07-26T02:57:13.737Z,96.49
2018-07-26T02:59:40.052Z,96.73
2018-07-26T03:02:06.371Z,97.06
2018-07-26T03:04:32.682Z,97.06
2018-07-26T03:06:58.991Z,96.82
2018-07-26T03:09:25.310Z,96.67
2018-07-26T03:11:51.617Z,96.67
2018-07-26T03:14:17.970Z,96.75
2018-07-26T03:16:44.290Z,96.74
2018-07-26T03:19:10.603Z,96.55
2018-07-26T03:21:36.923Z,96.47
2018-07-26T03:24:03.236Z,96.46
2018-07-26T03:26:29.546Z,96.42
2018-07-26T03:28:55.856Z,96.32
2018-07-26T03:31:22.166Z,96.35
2018-07-26T03:33:48.472Z,96.34
2018-07-26T03:36:14.791Z,96.46
2018-07-26T03:38:41.104Z,96.58
2018-07-26T03:41:07.451Z,96.54
2018-07-26T03:43:33.817Z,96.33
2018-07-26T03:46:00.078Z,96.26
2018-07-26T03:48:26.389Z,96.36
2018-07-26T03:50:52.707Z,96.15
2018-07-26T03:53:19.022Z,95.75
2018-07-26T03:55:45.340Z,95.45
2018-07-26T03:58:11.654Z,95.14
2018-07-26T04:00:37.975Z,94.79
2018-07-26T04:03:04.283Z,94.38
2018-07-26T04:05:30.611Z,94.17
2018-07-26T04:07:56.955Z,93.82
2018-07-26T04:10:23.263Z,93.44
2018-07-26T04:12:49.581Z,93.30
2018-07-26T04:15:15.896Z,93.16
2018-07-26T04:17:42.208Z,93.15
2018-07-26T04:20:08.551Z,93.12
2018-07-26T04:22:34.829Z,93.26
2018-07-26T04:25:01.145Z,93.49
2018-07-26T04:27:27.452Z,93.37
2018-07-26T04:29:53.760Z,93.06
2018-07-26T04:32:20.075Z,92.83
2018-07-26T04:34:46.389Z,92.96
2018-07-26T04:37:12.719Z,92.87
2018-07-26T04:39:39.024Z,92.63
2018-07-26T04:42:05.333Z,92.34
2018-07-26T04:44:31.649Z,91.90
2018-07-26T04:46:57.960Z,91.65
2018-07-26T04:49:24.270Z,91.18
2018-07-26T04:51:50.580Z,90.86
2018-07-26T04:54:16.901Z,90.58
2018-07-26T04:56:43.249Z,90.26
2018-07-26T04:59:09.569Z,89.79
2018-07-26T05:01:35.894Z,89.12
2018-07-26T05:04:02.220Z,88.82
2018-07-26T05:06:28.523Z,88.53
2018-07-26T05:08:54.837Z,88.33
2018-07-26T05:11:21.193Z,88.16
2018-07-26T05:13:47.500Z,88.20
2018-07-26T05:16:13.824Z,87.54
2018-07-26T05:18:40.144Z,86.30
2018-07-26T05:21:06.464Z,84.70
2018-07-26T05:23:32.816Z,84.12
2018-07-26T05:25:59.125Z,83.64
2018-07-26T05:28:25.445Z,82.35
2018-07-26T05:30:51.761Z,77.85
2018-07-26T05:33:18.114Z,74.52
2018-07-26T05:35:44.432Z,70.24
2018-07-26T05:38:10.754Z,70.43
2018-07-26T05:40:37.064Z,70.60
2018-07-26T05:43:03.383Z,69.84
2018-07-26T05:45:29.753Z,67.42
2018-07-26T05:47:56.063Z,67.16
2018-07-26T05:50:22.378Z,70.43
2018-07-26T05:52:48.691Z,73.15
2018-07-26T05:55:15.008Z,72.83
2018-07-26T05:57:41.372Z,72.58
2018-07-26T06:00:07.708Z,73.77
2018-07-26T06:02:34.003Z,72.95
2018-07-26T06:05:00.319Z,73.17
2018-07-26T06:07:26.672Z,72.80
2018-07-26T06:09:52.991Z,73.38
2018-07-26T06:12:19.309Z,74.08
2018-07-26T06:14:45.627Z,73.56
2018-07-26T06:17:11.986Z,73.46
2018-07-26T06:19:38.260Z,72.86
2018-07-26T06:22:04.613Z,70.59
2018-07-26T06:24:30.925Z,70.33
2018-07-26T06:26:57.284Z,71.18
2018-07-26T06:29:23.596Z,72.37
2018-07-26T06:31:49.913Z,68.06
2018-07-26T06:34:16.267Z,65.30
2018-07-26T06:36:42.576Z,62.24
2018-07-26T06:39:08.889Z,61.64
2018-07-26T06:41:35.259Z,59.38
2018-07-26T06:44:01.573Z,59.22
2018-07-26T06:46:27.908Z,58.67
2018-07-26T06:48:54.228Z,57.08
2018-07-26T06:51:20.549Z,58.76
2018-07-26T06:53:46.867Z,56.72
2018-07-26T06:56:13.196Z,55.54
2018-07-26T06:58:39.508Z,54.18
2018-07-26T07:01:05.820Z,55.02
2018-07-26T07:03:32.133Z,54.95
2018-07-26T07:05:58.487Z,54.30
2018-07-26T07:08:24.806Z,52.95
2018-07-26T07:10:51.169Z,51.91
2018-07-26T07:13:17.476Z,53.82
2018-07-26T07:15:43.793Z,55.92
2018-07-26T07:18:10.114Z,57.62
2018-07-26T07:20:36.469Z,59.80
2018-07-26T07:23:02.745Z,58.73
2018-07-26T07:25:29.066Z,58.49
2018-07-26T07:27:55.478Z,55.78
2018-07-26T07:30:21.705Z,55.11
2018-07-26T07:32:48.017Z,57.07
2018-07-26T07:35:14.339Z,58.17
2018-07-26T07:37:40.656Z,59.72
2018-07-26T07:40:06.976Z,59.68
2018-07-26T07:42:33.304Z,59.40
2018-07-26T07:44:59.625Z,56.71
2018-07-26T07:47:26.115Z,54.31
2018-07-26T07:49:52.257Z,51.82
2018-07-26T07:52:18.585Z,53.23
2018-07-26T07:54:44.901Z,55.27
2018-07-26T07:57:11.223Z,56.04
2018-07-26T07:59:37.608Z,55.33
2018-07-26T08:02:03.861Z,52.88
2018-07-26T08:04:30.176Z,52.87
2018-07-26T08:06:56.494Z,52.80
2018-07-26T08:09:22.812Z,51.09
2018-07-26T08:11:49.137Z,49.51
2018-07-26T08:14:15.484Z,46.99
2018-07-26T08:16:41.840Z,48.57
2018-07-26T08:19:08.198Z,49.99
2018-07-26T08:21:34.523Z,48.65
2018-07-26T08:24:00.840Z,48.55
2018-07-26T08:26:27.192Z,48.88
2018-07-26T08:28:53.495Z,49.20
2018-07-26T08:31:19.815Z,49.62
2018-07-26T08:33:46.127Z,48.13
2018-07-26T08:36:12.448Z,49.69
2018-07-26T08:38:38.765Z,48.86
2018-07-26T08:41:05.171Z,47.89
2018-07-26T08:43:31.449Z,51.40
2018-07-26T08:45:57.754Z,53.05
2018-07-26T08:48:24.074Z,54.09
2018-07-26T08:50:50.420Z,52.94
2018-07-26T08:53:16.734Z,50.57
2018-07-26T08:55:43.051Z,48.98
2018-07-26T08:58:09.407Z,48.97
2018-07-26T09:00:35.712Z,48.26
2018-07-26T09:03:02.029Z,47.92
2018-07-26T09:05:28.338Z,47.02
2018-07-26T09:07:54.662Z,49.73
2018-07-26T09:10:21.063Z,51.93
2018-07-26T09:12:47.369Z,53.87
2018-07-26T09:15:13.681Z,53.11
2018-07-26T09:17:39.996Z,49.50
2018-07-26T09:20:06.319Z,47.40
2018-07-26T09:22:32.632Z,46.59
2018-07-26T09:24:58.943Z,45.44
2018-07-26T09:27:25.258Z,49.73
2018-07-26T09:29:51.598Z,52.24
2018-07-26T09:32:17.921Z,53.31
2018-07-26T09:34:44.239Z,51.58
2018-07-26T09:37:10.552Z,51.64
2018-07-26T09:39:36.916Z,53.11
2018-07-26T09:42:03.187Z,54.17
2018-07-26T09:44:29.492Z,51.80
2018-07-26T09:46:55.809Z,49.15
2018-07-26T09:49:22.132Z,46.83
2018-07-26T09:51:48.456Z,45.28
2018-07-26T09:54:14.755Z,44.57
2018-07-26T09:56:41.072Z,44.82
2018-07-26T09:59:07.379Z,47.78
2018-07-26T10:01:33.702Z,48.62
2018-07-26T10:04:00.009Z,46.01
2018-07-26T10:06:26.323Z,45.37
2018-07-26T10:08:52.643Z,42.77
2018-07-26T10:11:18.963Z,45.61
2018-07-26T10:13:45.278Z,47.70
2018-07-26T10:16:11.598Z,49.02
2018-07-26T10:18:37.903Z,49.86
2018-07-26T10:21:04.219Z,50.80
2018-07-26T10:23:30.576Z,49.92
2018-07-26T10:25:56.890Z,49.53
2018-07-26T10:28:23.195Z,46.30
2018-07-26T10:30:49.503Z,42.75
2018-07-26T10:33:15.828Z,38.41
2018-07-26T10:35:42.142Z,40.08
2018-07-26T10:38:08.480Z,39.92
2018-07-26T10:40:34.804Z,39.86
2018-07-26T10:43:01.111Z,38.70
2018-07-26T10:45:27.415Z,38.78
2018-07-26T10:47:53.733Z,38.11
2018-07-26T10:50:20.089Z,40.28
2018-07-26T10:52:46.403Z,39.95
2018-07-26T10:55:12.711Z,40.35
2018-07-26T10:57:39.043Z,40.42
2018-07-26T11:00:05.356Z,42.47
2018-07-26T11:02:31.723Z,43.42
2018-07-26T11:04:58.042Z,43.86
2018-07-26T11:07:24.349Z,42.57
2018-07-26T11:09:50.681Z,43.64
2018-07-26T11:12:17.001Z,43.51
2018-07-26T11:14:43.312Z,44.38
2018-07-26T11:17:09.655Z,45.98
2018-07-26T11:19:35.964Z,46.55
2018-07-26T11:22:02.278Z,48.31
2018-07-26T11:24:28.587Z,49.35
2018-07-26T11:26:54.900Z,50.42
2018-07-26T11:29:21.219Z,52.11
2018-07-26T11:31:47.533Z,52.53
2018-07-26T11:34:13.851Z,52.36
2018-07-26T11:36:40.159Z,50.08
2018-07-26T11:39:06.474Z,48.37
2018-07-26T11:41:32.807Z,48.53
2018-07-26T11:43:59.088Z,48.03
2018-07-26T11:46:25.407Z,46.15
2018-07-26T11:48:51.721Z,47.09
2018-07-26T11:51:18.028Z,48.10
2018-07-26T11:53:44.343Z,49.79
2018-07-26T11:56:10.665Z,52.15
2018-07-26T11:58:36.980Z,53.28
2018-07-26T12:01:03.292Z,54.37
2018-07-26T12:03:29.608Z,55.18
2018-07-26T12:05:55.920Z,55.94
2018-07-26T12:08:22.236Z,56.71
2018-07-26T12:10:48.545Z,57.83
2018-07-26T12:13:14.856Z,57.30
2018-07-26T12:15:41.175Z,57.49
2018-07-26T12:18:07.484Z,57.17
2018-07-26T12:20:33.796Z,56.08
2018-07-26T12:23:00.127Z,56.48
2018-07-26T12:25:26.432Z,55.94
2018-07-26T12:27:52.739Z,54.40
2018-07-26T12:30:19.088Z,53.28
2018-07-26T12:32:45.400Z,52.37
2018-07-26T12:35:11.730Z,52.23
2018-07-26T12:37:38.040Z,53.01
2018-07-26T12:40:04.351Z,53.51
2018-07-26T12:42:30.661Z,53.90
2018-07-26T12:44:56.972Z,53.53
2018-07-26T12:47:23.293Z,53.33
2018-07-26T12:49:49.591Z,54.05
2018-07-26T12:52:15.904Z,55.17
2018-07-26T12:54:42.257Z,54.47
2018-07-26T12:57:08.520Z,54.17
2018-07-26T12:59:34.825Z,53.32
2018-07-26T13:02:01.156Z,52.53
2018-07-26T13:04:27.467Z,52.34
2018-07-26T13:06:53.815Z,51.74
2018-07-26T13:09:20.124Z,50.92
2018-07-26T13:11:46.437Z,51.06
2018-07-26T13:14:12.751Z,51.66
2018-07-26T13:16:39.059Z,51.32
2018-07-26T13:19:05.419Z,51.45
2018-07-26T13:21:31.729Z,52.38
2018-07-26T13:23:58.039Z,53.01
2018-07-26T13:26:24.346Z,53.02
2018-07-26T13:28:50.651Z,51.58
2018-07-26T13:31:16.967Z,53.33
2018-07-26T13:33:43.274Z,51.58
2018-07-26T13:36:09.660Z,51.25
2018-07-26T13:38:35.938Z,51.57
2018-07-26T13:41:02.241Z,51.66
2018-07-26T13:43:28.548Z,52.00
2018-07-26T13:45:54.870Z,53.53
2018-07-26T13:48:21.192Z,53.12
2018-07-26T13:50:47.557Z,52.97
2018-07-26T13:53:13.915Z,52.84
2018-07-26T13:55:40.228Z,53.37
2018-07-26T13:58:06.535Z,53.67
2018-07-26T14:00:32.953Z,54.94
2018-07-26T14:02:59.340Z,55.91
2018-07-26T14:05:25.789Z,56.22
2018-07-26T14:07:54.035Z,56.83
2018-07-26T14:10:18.484Z,56.85
2018-07-26T14:12:44.818Z,57.44
2018-07-26T14:15:11.108Z,58.92
2018-07-26T14:17:37.428Z,59.60
2018-07-26T14:20:03.744Z,59.67
2018-07-26T14:22:30.093Z,57.55
2018-07-26T14:24:56.384Z,57.32
2018-07-26T14:27:22.700Z,57.62
2018-07-26T14:29:49.054Z,57.76
2018-07-26T14:32:15.341Z,58.45
2018-07-26T14:34:41.656Z,57.54
2018-07-26T14:37:07.973Z,57.96
2018-07-26T14:39:34.296Z,57.88
2018-07-26T14:42:00.596Z,57.55
2018-07-26T14:44:26.917Z,57.37
2018-07-26T14:46:53.228Z,57.33
2018-07-26T14:49:19.558Z,57.00
2018-07-26T14:51:45.896Z,57.16
2018-07-26T14:54:12.203Z,57.92
2018-07-26T14:56:38.573Z,57.64
2018-07-26T14:59:04.879Z,57.33
2018-07-26T15:01:31.197Z,58.03
2018-07-26T15:03:57.518Z,58.60
2018-07-26T15:06:23.844Z,58.13
2018-07-26T15:08:50.208Z,57.98
2018-07-26T15:11:16.498Z,58.21
2018-07-26T15:13:42.803Z,57.32
2018-07-26T15:16:09.121Z,57.59
2018-07-26T15:18:35.436Z,57.95
2018-07-26T15:21:01.772Z,57.30
2018-07-26T15:23:28.104Z,57.44
2018-07-26T15:25:54.417Z,56.93
2018-07-26T15:28:20.736Z,56.92
2018-07-26T15:30:47.085Z,58.14
2018-07-26T15:33:13.377Z,59.63
2018-07-26T15:35:39.688Z,60.45
2018-07-26T15:38:06.005Z,61.36
2018-07-26T15:40:32.310Z,61.69
2018-07-26T15:42:58.620Z,62.01
2018-07-26T15:45:24.953Z,63.53
2018-07-26T15:47:51.276Z,64.35
2018-07-26T15:50:17.597Z,65.01
2018-07-26T15:52:43.904Z,64.39
2018-07-26T15:55:10.216Z,63.40
2018-07-26T15:57:36.533Z,62.62
2018-07-26T16:00:04.668Z,61.22
2018-07-26T16:02:30.976Z,59.57
2018-07-26T16:04:57.307Z,58.99
2018-07-26T16:07:23.635Z,59.09
2018-07-26T16:09:49.967Z,59.62
2018-07-26T16:12:16.333Z,59.48
2018-07-26T16:14:42.588Z,59.93
2018-07-26T16:17:08.914Z,60.41
2018-07-26T16:19:35.242Z,60.74
2018-07-26T16:22:01.605Z,61.21
2018-07-26T16:24:27.878Z,61.35
2018-07-26T16:26:54.212Z,61.41
2018-07-26T16:29:20.529Z,61.56
2018-07-26T16:31:46.841Z,61.95
2018-07-26T16:34:13.157Z,61.80
2018-07-26T16:36:39.463Z,61.93
2018-07-26T16:39:05.776Z,62.08
2018-07-26T16:41:32.109Z,61.83
2018-07-26T16:43:58.446Z,61.86
2018-07-26T16:46:24.759Z,62.15
2018-07-26T16:48:51.110Z,62.58
2018-07-26T16:51:17.428Z,62.80
2018-07-26T16:53:43.755Z,63.43
2018-07-26T16:56:10.081Z,63.76
2018-07-26T16:58:36.527Z,64.15
2018-07-26T17:01:02.698Z,64.61
2018-07-26T17:03:29.006Z,65.42
2018-07-26T17:05:55.319Z,66.01
2018-07-26T17:08:21.626Z,66.40
2018-07-26T17:10:47.944Z,66.68
2018-07-26T17:13:14.278Z,67.04
2018-07-26T17:15:40.583Z,67.74
2018-07-26T17:18:06.891Z,68.02
2018-07-26T17:20:33.218Z,68.41
2018-07-26T17:22:59.550Z,68.81
2018-07-26T17:25:25.877Z,68.98
2018-07-26T17:27:52.230Z,69.46
2018-07-26T17:30:18.560Z,70.18
2018-07-26T17:32:44.947Z,71.42
2018-07-26T17:35:11.295Z,72.57
2018-07-26T17:37:37.641Z,73.64
2018-07-26T17:40:04.000Z,75.30
2018-07-26T17:42:30.303Z,77.31
2018-07-26T17:44:56.683Z,79.62
2018-07-26T17:47:22.958Z,80.46
2018-07-26T17:49:49.274Z,82.15
2018-07-26T17:52:15.584Z,83.70
2018-07-26T17:54:41.939Z,84.74
2018-07-26T17:57:08.267Z,84.33
2018-07-26T17:59:34.591Z,84.40
2018-07-26T18:02:00.928Z,84.63
2018-07-26T18:04:27.314Z,84.29
2018-07-26T18:06:53.625Z,84.10
2018-07-26T18:09:19.937Z,82.93
2018-07-26T18:11:46.273Z,82.20
2018-07-26T18:14:15.340Z,84.01
2018-07-26T18:16:41.652Z,84.30
2018-07-26T18:19:07.968Z,83.84
2018-07-26T18:21:34.345Z,84.39
2018-07-26T18:24:00.651Z,85.00
2018-07-26T18:26:27.000Z,85.48
2018-07-26T18:28:53.312Z,86.24
2018-07-26T18:31:19.645Z,87.23
2018-07-26T18:33:45.947Z,86.51
2018-07-26T18:36:12.282Z,85.79
2018-07-26T18:38:38.612Z,85.57
2018-07-26T18:41:04.924Z,86.01
2018-07-26T18:43:31.287Z,86.28
2018-07-26T18:45:57.614Z,86.82
2018-07-26T18:48:23.942Z,87.00
2018-07-26T18:50:50.257Z,86.72
2018-07-26T18:53:16.574Z,84.39
2018-07-26T18:55:42.880Z,83.16
2018-07-26T18:58:09.188Z,82.77
2018-07-26T19:00:35.515Z,83.28
2018-07-26T19:03:01.818Z,84.49
2018-07-26T19:05:28.149Z,85.54
2018-07-26T19:07:54.455Z,85.58
2018-07-26T19:10:20.782Z,86.30
2018-07-26T19:12:47.088Z,85.97
2018-07-26T19:15:13.400Z,85.67
2018-07-26T19:17:39.714Z,85.22
2018-07-26T19:20:06.043Z,84.35
2018-07-26T19:22:32.362Z,83.41
2018-07-26T19:24:58.729Z,83.52
2018-07-26T19:27:25.060Z,84.15
2018-07-26T19:29:51.376Z,84.43
2018-07-26T19:32:17.701Z,84.16
2018-07-26T19:34:44.016Z,84.08
2018-07-26T19:37:10.350Z,84.75
2018-07-26T19:39:36.700Z,85.46
2018-07-26T19:42:03.051Z,84.81
2018-07-26T19:44:29.402Z,85.44
2018-07-26T19:46:55.730Z,85.92
2018-07-26T19:49:22.067Z,85.32
2018-07-26T19:51:48.397Z,85.82
2018-07-26T19:54:14.769Z,85.51
2018-07-26T19:56:41.090Z,85.47
2018-07-26T19:59:07.418Z,85.44
2018-07-26T20:01:33.747Z,85.56
2018-07-26T20:04:00.137Z,85.72
2018-07-26T20:06:26.364Z,86.02
2018-07-26T20:08:52.685Z,86.40
2018-07-26T20:11:18.996Z,86.00
2018-07-26T20:13:45.344Z,85.83
2018-07-26T20:16:11.707Z,85.43
2018-07-26T20:18:38.016Z,85.35
2018-07-26T20:21:04.379Z,85.15
2018-07-26T20:23:30.722Z,85.32
2018-07-26T20:25:57.042Z,85.27
2018-07-26T20:28:23.349Z,85.75
2018-07-26T20:30:49.658Z,85.66
2018-07-26T20:33:15.967Z,85.44
2018-07-26T20:35:42.294Z,85.20
2018-07-26T20:38:08.622Z,84.76
2018-07-26T20:40:34.961Z,85.02
2018-07-26T20:43:01.260Z,84.75
2018-07-26T20:45:27.581Z,84.33
2018-07-26T20:47:53.886Z,83.41
2018-07-26T20:50:20.207Z,83.34
2018-07-26T20:52:46.529Z,82.88
2018-07-26T20:55:12.838Z,82.30
2018-07-26T20:57:39.147Z,82.30
2018-07-26T21:00:05.475Z,82.25
2018-07-26T21:02:31.801Z,82.36
2018-07-26T21:04:58.121Z,82.36
2018-07-26T21:07:24.425Z,82.59
2018-07-26T21:09:50.745Z,82.96
2018-07-26T21:12:17.050Z,82.94
2018-07-26T21:14:43.355Z,82.94
2018-07-26T21:17:09.675Z,82.02
2018-07-26T21:19:35.987Z,82.30
2018-07-26T21:22:02.302Z,82.05
2018-07-26T21:24:28.638Z,82.12
2018-07-26T21:26:54.959Z,82.14
2018-07-26T21:29:21.258Z,82.47
2018-07-26T21:31:47.633Z,82.79
2018-07-26T21:34:13.878Z,83.35
2018-07-26T21:36:40.198Z,84.37
2018-07-26T21:39:06.497Z,84.52
2018-07-26T21:41:32.809Z,85.02
2018-07-26T21:43:59.121Z,84.73
2018-07-26T21:46:25.465Z,83.95
2018-07-26T21:48:51.771Z,84.64
2018-07-26T21:51:18.074Z,84.54
2018-07-26T21:53:44.429Z,83.91
2018-07-26T21:56:10.738Z,84.23
2018-07-26T21:58:37.049Z,84.28
2018-07-26T22:01:03.401Z,84.61
2018-07-26T22:03:29.714Z,84.70
2018-07-26T22:05:56.065Z,84.91
2018-07-26T22:08:22.373Z,85.44
2018-07-26T22:10:48.681Z,85.37
2018-07-26T22:13:14.999Z,84.33
2018-07-26T22:15:41.342Z,84.31
2018-07-26T22:18:07.651Z,84.17
2018-07-26T22:20:33.953Z,84.59
2018-07-26T22:23:00.262Z,84.84
2018-07-26T22:25:26.566Z,85.06
2018-07-26T22:27:52.874Z,85.42
2018-07-26T22:30:19.179Z,85.27
2018-07-26T22:32:45.487Z,85.58
2018-07-26T22:35:11.791Z,85.22
2018-07-26T22:37:38.105Z,85.39
2018-07-26T22:40:04.411Z,85.34
2018-07-26T22:42:30.717Z,85.41
2018-07-26T22:44:57.061Z,85.22
2018-07-26T22:47:23.366Z,85.33
2018-07-26T22:49:49.675Z,85.38
2018-07-26T22:52:15.986Z,85.39
2018-07-26T22:54:42.283Z,85.66
2018-07-26T22:57:08.594Z,86.11
2018-07-26T22:59:34.893Z,86.27
2018-07-26T23:02:01.203Z,86.52
2018-07-26T23:04:27.559Z,86.45
2018-07-26T23:06:53.853Z,86.06
2018-07-26T23:09:20.157Z,85.21
2018-07-26T23:11:46.504Z,85.04
2018-07-26T23:14:12.855Z,86.02
2018-07-26T23:16:39.162Z,86.61
2018-07-26T23:19:05.513Z,87.25
2018-07-26T23:21:31.823Z,87.46
2018-07-26T23:23:58.133Z,87.88
2018-07-26T23:26:24.448Z,88.44
2018-07-26T23:28:50.750Z,89.01
2018-07-26T23:31:17.065Z,89.67
2018-07-26T23:33:43.377Z,89.43
2018-07-26T23:36:09.688Z,88.91
2018-07-26T23:38:36.004Z,88.86
2018-07-26T23:41:02.310Z,88.35
2018-07-26T23:43:28.620Z,89.13
2018-07-26T23:45:54.933Z,89.77
2018-07-26T23:48:21.244Z,90.44
2018-07-26T23:50:47.561Z,90.92
2018-07-26T23:53:13.874Z,91.30
2018-07-26T23:55:40.183Z,91.53
2018-07-26T23:58:06.497Z,90.87
